sensor_id;sensor_type;location;lat;lon;timestamp;P1;durP1;ratioP1;P2;durP2;ratioP2
22543;SDS011;11438;52.044;8.716;2023-08-12T00:02:08;4.60;;;2.60;;
22543;SDS011;11438;52.044;8.716;2023-08-12T00:04:33;4.88;;;2.50;;
22543;SDS011;11438;52.044;8.716;2023-08-12T00:06:59;3.58;;;2.50;;
22543;SDS011;11438;52.044;8.716;2023-08-12T00:09:24;3.97;;;2.20;;
22543;SDS011;11438;52.044;8.716;2023-08-12T00:11:50;5.18;;;2.30;;
22543;SDS011;11438;52.044;8.716;2023-08-12T00:14:15;4.63;;;2.38;;
22543;SDS011;11438;52.044;8.716;2023-08-12T00:16:41;6.57;;;2.60;;
22543;SDS011;11438;52.044;8.716;2023-08-12T00:19:07;4.88;;;2.60;;
22543;SDS011;11438;52.044;8.716;2023-08-12T00:21:33;3.20;;;2.05;;
22543;SDS011;11438;52.044;8.716;2023-08-12T00:23:58;5.55;;;2.55;;
22543;SDS011;11438;52.044;8.716;2023-08-12T00:26:24;3.45;;;2.22;;
22543;SDS011;11438;52.044;8.716;2023-08-12T00:28:50;4.70;;;2.33;;
22543;SDS011;11438;52.044;8.716;2023-08-12T00:31:16;4.20;;;2.70;;
22543;SDS011;11438;52.044;8.716;2023-08-12T00:33:41;3.65;;;2.17;;
22543;SDS011;11438;52.044;8.716;2023-08-12T00:36:07;6.97;;;2.50;;
22543;SDS011;11438;52.044;8.716;2023-08-12T00:38:32;5.82;;;2.70;;
22543;SDS011;11438;52.044;8.716;2023-08-12T00:40:58;8.50;;;3.10;;
22543;SDS011;11438;52.044;8.716;2023-08-12T00:43:23;5.88;;;2.72;;
22543;SDS011;11438;52.044;8.716;2023-08-12T00:45:49;4.55;;;2.45;;
22543;SDS011;11438;52.044;8.716;2023-08-12T00:48:15;5.45;;;2.75;;
22543;SDS011;11438;52.044;8.716;2023-08-12T00:50:42;4.53;;;2.45;;
22543;SDS011;11438;52.044;8.716;2023-08-12T00:53:08;4.82;;;2.78;;
22543;SDS011;11438;52.044;8.716;2023-08-12T00:55:35;3.97;;;2.60;;
22543;SDS011;11438;52.044;8.716;2023-08-12T00:58:02;5.55;;;2.53;;
22543;SDS011;11438;52.044;8.716;2023-08-12T01:00:28;3.97;;;2.80;;
22543;SDS011;11438;52.044;8.716;2023-08-12T01:02:54;6.97;;;2.90;;
22543;SDS011;11438;52.044;8.716;2023-08-12T01:05:22;5.00;;;2.95;;
22543;SDS011;11438;52.044;8.716;2023-08-12T01:07:47;3.88;;;2.75;;
22543;SDS011;11438;52.044;8.716;2023-08-12T01:10:13;5.13;;;2.97;;
22543;SDS011;11438;52.044;8.716;2023-08-12T01:12:42;4.97;;;3.03;;
22543;SDS011;11438;52.044;8.716;2023-08-12T01:15:20;8.95;;;3.20;;
22543;SDS011;11438;52.044;8.716;2023-08-12T01:17:48;6.68;;;3.05;;
22543;SDS011;11438;52.044;8.716;2023-08-12T01:20:17;4.25;;;3.47;;
22543;SDS011;11438;52.044;8.716;2023-08-12T01:22:49;4.60;;;3.33;;
22543;SDS011;11438;52.044;8.716;2023-08-12T01:25:21;7.18;;;3.22;;
22543;SDS011;11438;52.044;8.716;2023-08-12T01:27:46;5.85;;;3.80;;
22543;SDS011;11438;52.044;8.716;2023-08-12T01:30:12;7.40;;;3.63;;
22543;SDS011;11438;52.044;8.716;2023-08-12T01:32:42;6.90;;;3.28;;
22543;SDS011;11438;52.044;8.716;2023-08-12T01:37:51;6.95;;;3.78;;
22543;SDS011;11438;52.044;8.716;2023-08-12T01:40:18;5.80;;;3.88;;
22543;SDS011;11438;52.044;8.716;2023-08-12T01:42:45;5.82;;;3.83;;
22543;SDS011;11438;52.044;8.716;2023-08-12T01:45:11;8.35;;;3.78;;
22543;SDS011;11438;52.044;8.716;2023-08-12T01:47:37;7.10;;;3.80;;
22543;SDS011;11438;52.044;8.716;2023-08-12T01:50:03;8.13;;;4.05;;
22543;SDS011;11438;52.044;8.716;2023-08-12T01:52:29;9.13;;;4.85;;
22543;SDS011;11438;52.044;8.716;2023-08-12T01:54:54;6.43;;;4.30;;
22543;SDS011;11438;52.044;8.716;2023-08-12T01:57:20;6.78;;;3.42;;
22543;SDS011;11438;52.044;8.716;2023-08-12T01:59:45;6.50;;;4.32;;
22543;SDS011;11438;52.044;8.716;2023-08-12T02:02:11;6.72;;;4.00;;
22543;SDS011;11438;52.044;8.716;2023-08-12T02:04:37;6.50;;;4.22;;
22543;SDS011;11438;52.044;8.716;2023-08-12T02:07:04;6.97;;;3.53;;
22543;SDS011;11438;52.044;8.716;2023-08-12T02:09:30;5.43;;;3.65;;
22543;SDS011;11438;52.044;8.716;2023-08-12T02:11:55;6.43;;;3.97;;
22543;SDS011;11438;52.044;8.716;2023-08-12T02:14:21;6.93;;;3.80;;
22543;SDS011;11438;52.044;8.716;2023-08-12T02:16:47;7.50;;;3.67;;
22543;SDS011;11438;52.044;8.716;2023-08-12T02:19:12;7.70;;;3.67;;
22543;SDS011;11438;52.044;8.716;2023-08-12T02:21:38;7.00;;;4.28;;
22543;SDS011;11438;52.044;8.716;2023-08-12T02:24:03;5.45;;;3.88;;
22543;SDS011;11438;52.044;8.716;2023-08-12T02:26:29;7.25;;;4.25;;
22543;SDS011;11438;52.044;8.716;2023-08-12T02:28:55;7.85;;;4.00;;
22543;SDS011;11438;52.044;8.716;2023-08-12T02:31:21;8.95;;;4.40;;
22543;SDS011;11438;52.044;8.716;2023-08-12T02:33:46;7.05;;;4.05;;
22543;SDS011;11438;52.044;8.716;2023-08-12T02:36:12;7.63;;;4.50;;
22543;SDS011;11438;52.044;8.716;2023-08-12T02:38:37;6.57;;;4.00;;
22543;SDS011;11438;52.044;8.716;2023-08-12T02:41:03;9.10;;;4.38;;
22543;SDS011;11438;52.044;8.716;2023-08-12T02:43:28;6.93;;;5.03;;
22543;SDS011;11438;52.044;8.716;2023-08-12T02:45:54;6.90;;;4.18;;
22543;SDS011;11438;52.044;8.716;2023-08-12T02:48:20;6.72;;;4.00;;
22543;SDS011;11438;52.044;8.716;2023-08-12T02:50:46;7.28;;;4.20;;
22543;SDS011;11438;52.044;8.716;2023-08-12T02:53:12;6.32;;;4.10;;
22543;SDS011;11438;52.044;8.716;2023-08-12T02:55:37;5.68;;;3.55;;
22543;SDS011;11438;52.044;8.716;2023-08-12T02:58:03;8.43;;;4.40;;
22543;SDS011;11438;52.044;8.716;2023-08-12T03:00:29;6.20;;;4.30;;
22543;SDS011;11438;52.044;8.716;2023-08-12T03:02:54;6.60;;;4.03;;
22543;SDS011;11438;52.044;8.716;2023-08-12T03:05:21;6.60;;;4.68;;
22543;SDS011;11438;52.044;8.716;2023-08-12T03:07:47;6.72;;;5.18;;
22543;SDS011;11438;52.044;8.716;2023-08-12T03:10:13;7.93;;;5.35;;
22543;SDS011;11438;52.044;8.716;2023-08-12T03:12:38;7.13;;;5.28;;
22543;SDS011;11438;52.044;8.716;2023-08-12T03:15:05;5.80;;;4.50;;
22543;SDS011;11438;52.044;8.716;2023-08-12T03:17:31;7.95;;;5.05;;
22543;SDS011;11438;52.044;8.716;2023-08-12T03:19:57;8.52;;;5.32;;
22543;SDS011;11438;52.044;8.716;2023-08-12T03:22:29;6.57;;;4.03;;
22543;SDS011;11438;52.044;8.716;2023-08-12T03:24:54;6.25;;;4.53;;
22543;SDS011;11438;52.044;8.716;2023-08-12T03:27:20;8.15;;;4.85;;
22543;SDS011;11438;52.044;8.716;2023-08-12T03:29:45;6.07;;;4.20;;
22543;SDS011;11438;52.044;8.716;2023-08-12T03:32:11;7.35;;;5.55;;
22543;SDS011;11438;52.044;8.716;2023-08-12T03:34:37;7.13;;;4.68;;
22543;SDS011;11438;52.044;8.716;2023-08-12T03:37:02;6.30;;;4.15;;
22543;SDS011;11438;52.044;8.716;2023-08-12T03:39:28;6.68;;;4.55;;
22543;SDS011;11438;52.044;8.716;2023-08-12T03:41:54;7.30;;;5.03;;
22543;SDS011;11438;52.044;8.716;2023-08-12T03:44:20;6.93;;;4.70;;
22543;SDS011;11438;52.044;8.716;2023-08-12T03:46:45;9.15;;;4.85;;
22543;SDS011;11438;52.044;8.716;2023-08-12T03:49:11;7.35;;;4.97;;
22543;SDS011;11438;52.044;8.716;2023-08-12T03:51:36;7.55;;;5.32;;
22543;SDS011;11438;52.044;8.716;2023-08-12T03:54:02;8.20;;;5.60;;
22543;SDS011;11438;52.044;8.716;2023-08-12T03:56:28;9.75;;;5.18;;
22543;SDS011;11438;52.044;8.716;2023-08-12T03:58:54;8.63;;;5.40;;
22543;SDS011;11438;52.044;8.716;2023-08-12T04:01:20;7.82;;;5.75;;
22543;SDS011;11438;52.044;8.716;2023-08-12T04:03:45;6.97;;;5.00;;
22543;SDS011;11438;52.044;8.716;2023-08-12T04:06:11;6.43;;;4.72;;
22543;SDS011;11438;52.044;8.716;2023-08-12T04:08:36;5.18;;;3.85;;
22543;SDS011;11438;52.044;8.716;2023-08-12T04:11:01;6.72;;;4.22;;
22543;SDS011;11438;52.044;8.716;2023-08-12T04:13:27;7.43;;;4.75;;
22543;SDS011;11438;52.044;8.716;2023-08-12T04:15:52;6.88;;;4.75;;
22543;SDS011;11438;52.044;8.716;2023-08-12T04:18:18;8.00;;;5.32;;
22543;SDS011;11438;52.044;8.716;2023-08-12T04:20:50;7.15;;;4.45;;
22543;SDS011;11438;52.044;8.716;2023-08-12T04:23:17;7.55;;;5.72;;
22543;SDS011;11438;52.044;8.716;2023-08-12T04:25:43;7.18;;;5.20;;
22543;SDS011;11438;52.044;8.716;2023-08-12T04:28:10;9.45;;;6.00;;
22543;SDS011;11438;52.044;8.716;2023-08-12T04:30:40;9.77;;;5.90;;
22543;SDS011;11438;52.044;8.716;2023-08-12T04:33:09;7.90;;;5.22;;
22543;SDS011;11438;52.044;8.716;2023-08-12T04:35:35;8.00;;;6.10;;
22543;SDS011;11438;52.044;8.716;2023-08-12T04:38:00;7.05;;;4.78;;
22543;SDS011;11438;52.044;8.716;2023-08-12T04:40:26;8.43;;;5.15;;
22543;SDS011;11438;52.044;8.716;2023-08-12T04:42:52;8.48;;;6.22;;
22543;SDS011;11438;52.044;8.716;2023-08-12T04:45:17;8.35;;;5.45;;
22543;SDS011;11438;52.044;8.716;2023-08-12T04:47:43;5.75;;;4.68;;
22543;SDS011;11438;52.044;8.716;2023-08-12T04:50:08;8.43;;;6.03;;
22543;SDS011;11438;52.044;8.716;2023-08-12T04:52:34;9.95;;;5.65;;
22543;SDS011;11438;52.044;8.716;2023-08-12T04:54:59;7.55;;;4.95;;
22543;SDS011;11438;52.044;8.716;2023-08-12T04:57:25;7.07;;;4.80;;
22543;SDS011;11438;52.044;8.716;2023-08-12T04:59:50;7.80;;;5.18;;
22543;SDS011;11438;52.044;8.716;2023-08-12T05:02:16;6.32;;;4.47;;
22543;SDS011;11438;52.044;8.716;2023-08-12T05:04:46;7.07;;;4.82;;
22543;SDS011;11438;52.044;8.716;2023-08-12T05:07:15;9.55;;;5.28;;
22543;SDS011;11438;52.044;8.716;2023-08-12T05:09:41;9.32;;;6.28;;
22543;SDS011;11438;52.044;8.716;2023-08-12T05:12:09;6.68;;;4.85;;
22543;SDS011;11438;52.044;8.716;2023-08-12T05:14:35;8.77;;;5.85;;
22543;SDS011;11438;52.044;8.716;2023-08-12T05:17:01;9.82;;;6.47;;
22543;SDS011;11438;52.044;8.716;2023-08-12T05:19:27;7.88;;;5.57;;
22543;SDS011;11438;52.044;8.716;2023-08-12T05:21:52;7.50;;;5.60;;
22543;SDS011;11438;52.044;8.716;2023-08-12T05:24:18;8.57;;;5.28;;
22543;SDS011;11438;52.044;8.716;2023-08-12T05:26:43;7.10;;;5.57;;
22543;SDS011;11438;52.044;8.716;2023-08-12T05:29:09;9.05;;;5.82;;
22543;SDS011;11438;52.044;8.716;2023-08-12T05:31:34;8.77;;;5.35;;
22543;SDS011;11438;52.044;8.716;2023-08-12T05:34:00;9.20;;;5.78;;
22543;SDS011;11438;52.044;8.716;2023-08-12T05:36:25;8.55;;;6.78;;
22543;SDS011;11438;52.044;8.716;2023-08-12T05:38:51;10.82;;;7.63;;
22543;SDS011;11438;52.044;8.716;2023-08-12T05:41:16;9.25;;;7.20;;
22543;SDS011;11438;52.044;8.716;2023-08-12T05:43:42;9.00;;;6.30;;
22543;SDS011;11438;52.044;8.716;2023-08-12T05:46:07;9.73;;;6.25;;
22543;SDS011;11438;52.044;8.716;2023-08-12T05:48:33;10.48;;;8.32;;
22543;SDS011;11438;52.044;8.716;2023-08-12T05:50:58;11.80;;;8.93;;
22543;SDS011;11438;52.044;8.716;2023-08-12T05:53:24;11.95;;;8.35;;
22543;SDS011;11438;52.044;8.716;2023-08-12T05:55:49;8.85;;;7.00;;
22543;SDS011;11438;52.044;8.716;2023-08-12T05:58:15;13.25;;;8.60;;
22543;SDS011;11438;52.044;8.716;2023-08-12T06:00:41;12.68;;;7.55;;
22543;SDS011;11438;52.044;8.716;2023-08-12T06:03:10;10.50;;;7.70;;
22543;SDS011;11438;52.044;8.716;2023-08-12T06:05:36;11.23;;;7.90;;
22543;SDS011;11438;52.044;8.716;2023-08-12T06:08:02;9.23;;;7.00;;
22543;SDS011;11438;52.044;8.716;2023-08-12T06:10:27;11.07;;;8.20;;
22543;SDS011;11438;52.044;8.716;2023-08-12T06:12:53;8.25;;;6.57;;
22543;SDS011;11438;52.044;8.716;2023-08-12T06:15:18;9.77;;;7.93;;
22543;SDS011;11438;52.044;8.716;2023-08-12T06:17:44;9.27;;;7.25;;
22543;SDS011;11438;52.044;8.716;2023-08-12T06:20:10;8.55;;;6.55;;
22543;SDS011;11438;52.044;8.716;2023-08-12T06:22:36;8.07;;;6.43;;
22543;SDS011;11438;52.044;8.716;2023-08-12T06:25:02;8.93;;;5.93;;
22543;SDS011;11438;52.044;8.716;2023-08-12T06:27:28;8.75;;;6.90;;
22543;SDS011;11438;52.044;8.716;2023-08-12T06:29:53;6.88;;;5.78;;
22543;SDS011;11438;52.044;8.716;2023-08-12T06:32:19;7.63;;;6.40;;
22543;SDS011;11438;52.044;8.716;2023-08-12T06:34:44;6.55;;;5.45;;
22543;SDS011;11438;52.044;8.716;2023-08-12T06:37:10;9.30;;;6.95;;
22543;SDS011;11438;52.044;8.716;2023-08-12T06:39:35;8.40;;;6.35;;
22543;SDS011;11438;52.044;8.716;2023-08-12T06:42:01;8.98;;;6.70;;
22543;SDS011;11438;52.044;8.716;2023-08-12T06:44:26;8.82;;;6.75;;
22543;SDS011;11438;52.044;8.716;2023-08-12T06:46:52;8.00;;;6.18;;
22543;SDS011;11438;52.044;8.716;2023-08-12T06:49:17;7.82;;;5.90;;
22543;SDS011;11438;52.044;8.716;2023-08-12T06:51:43;7.38;;;6.35;;
22543;SDS011;11438;52.044;8.716;2023-08-12T06:54:08;12.52;;;6.60;;
22543;SDS011;11438;52.044;8.716;2023-08-12T06:56:34;9.30;;;6.93;;
22543;SDS011;11438;52.044;8.716;2023-08-12T06:58:59;9.02;;;6.95;;
22543;SDS011;11438;52.044;8.716;2023-08-12T07:01:25;7.57;;;6.40;;
22543;SDS011;11438;52.044;8.716;2023-08-12T07:03:50;8.15;;;6.65;;
22543;SDS011;11438;52.044;8.716;2023-08-12T07:06:16;9.07;;;7.60;;
22543;SDS011;11438;52.044;8.716;2023-08-12T07:08:41;10.50;;;7.07;;
22543;SDS011;11438;52.044;8.716;2023-08-12T07:11:07;9.32;;;7.18;;
22543;SDS011;11438;52.044;8.716;2023-08-12T07:13:33;8.52;;;6.85;;
22543;SDS011;11438;52.044;8.716;2023-08-12T07:15:58;6.72;;;5.50;;
22543;SDS011;11438;52.044;8.716;2023-08-12T07:18:24;8.25;;;6.45;;
22543;SDS011;11438;52.044;8.716;2023-08-12T07:20:49;9.75;;;7.43;;
22543;SDS011;11438;52.044;8.716;2023-08-12T07:23:15;8.75;;;7.35;;
22543;SDS011;11438;52.044;8.716;2023-08-12T07:25:40;9.55;;;7.20;;
22543;SDS011;11438;52.044;8.716;2023-08-12T07:28:06;8.43;;;6.85;;
22543;SDS011;11438;52.044;8.716;2023-08-12T07:30:33;6.88;;;5.80;;
22543;SDS011;11438;52.044;8.716;2023-08-12T07:33:00;8.25;;;6.70;;
22543;SDS011;11438;52.044;8.716;2023-08-12T07:35:25;6.22;;;5.32;;
22543;SDS011;11438;52.044;8.716;2023-08-12T07:37:51;8.75;;;5.88;;
22543;SDS011;11438;52.044;8.716;2023-08-12T07:40:16;6.85;;;5.43;;
22543;SDS011;11438;52.044;8.716;2023-08-12T07:42:42;6.78;;;5.53;;
22543;SDS011;11438;52.044;8.716;2023-08-12T07:45:08;7.22;;;6.20;;
22543;SDS011;11438;52.044;8.716;2023-08-12T07:47:34;7.15;;;6.20;;
22543;SDS011;11438;52.044;8.716;2023-08-12T07:49:59;7.07;;;5.40;;
22543;SDS011;11438;52.044;8.716;2023-08-12T07:52:25;6.63;;;5.55;;
22543;SDS011;11438;52.044;8.716;2023-08-12T07:54:50;8.02;;;6.68;;
22543;SDS011;11438;52.044;8.716;2023-08-12T07:57:15;5.43;;;4.53;;
22543;SDS011;11438;52.044;8.716;2023-08-12T07:59:41;6.47;;;5.75;;
22543;SDS011;11438;52.044;8.716;2023-08-12T08:02:07;7.03;;;5.78;;
22543;SDS011;11438;52.044;8.716;2023-08-12T08:04:33;5.70;;;4.95;;
22543;SDS011;11438;52.044;8.716;2023-08-12T08:06:59;7.47;;;5.45;;
22543;SDS011;11438;52.044;8.716;2023-08-12T08:09:24;9.63;;;6.85;;
22543;SDS011;11438;52.044;8.716;2023-08-12T08:11:50;5.63;;;4.80;;
22543;SDS011;11438;52.044;8.716;2023-08-12T08:14:15;6.32;;;5.68;;
22543;SDS011;11438;52.044;8.716;2023-08-12T08:16:41;6.72;;;5.72;;
22543;SDS011;11438;52.044;8.716;2023-08-12T08:19:07;8.30;;;5.93;;
22543;SDS011;11438;52.044;8.716;2023-08-12T08:21:34;7.45;;;5.80;;
22543;SDS011;11438;52.044;8.716;2023-08-12T08:24:00;6.50;;;5.38;;
22543;SDS011;11438;52.044;8.716;2023-08-12T08:26:26;7.13;;;5.63;;
22543;SDS011;11438;52.044;8.716;2023-08-12T08:28:51;7.28;;;5.95;;
22543;SDS011;11438;52.044;8.716;2023-08-12T08:31:17;8.95;;;6.38;;
22543;SDS011;11438;52.044;8.716;2023-08-12T08:33:43;5.88;;;5.03;;
22543;SDS011;11438;52.044;8.716;2023-08-12T08:36:08;8.25;;;5.72;;
22543;SDS011;11438;52.044;8.716;2023-08-12T08:38:34;7.60;;;5.88;;
22543;SDS011;11438;52.044;8.716;2023-08-12T08:40:59;6.13;;;5.53;;
22543;SDS011;11438;52.044;8.716;2023-08-12T08:43:26;5.88;;;5.22;;
22543;SDS011;11438;52.044;8.716;2023-08-12T08:45:53;6.50;;;5.03;;
22543;SDS011;11438;52.044;8.716;2023-08-12T08:48:19;5.95;;;5.35;;
22543;SDS011;11438;52.044;8.716;2023-08-12T08:50:46;4.90;;;4.47;;
22543;SDS011;11438;52.044;8.716;2023-08-12T08:53:12;7.25;;;4.38;;
22543;SDS011;11438;52.044;8.716;2023-08-12T08:55:40;4.13;;;3.40;;
22543;SDS011;11438;52.044;8.716;2023-08-12T08:58:06;5.68;;;3.97;;
22543;SDS011;11438;52.044;8.716;2023-08-12T09:00:31;7.43;;;3.90;;
22543;SDS011;11438;52.044;8.716;2023-08-12T09:02:57;4.88;;;3.83;;
22543;SDS011;11438;52.044;8.716;2023-08-12T09:05:23;4.70;;;3.65;;
22543;SDS011;11438;52.044;8.716;2023-08-12T09:07:50;4.32;;;3.70;;
22543;SDS011;11438;52.044;8.716;2023-08-12T09:10:17;4.72;;;3.33;;
22543;SDS011;11438;52.044;8.716;2023-08-12T09:12:45;3.45;;;2.90;;
22543;SDS011;11438;52.044;8.716;2023-08-12T09:15:11;4.70;;;3.65;;
22543;SDS011;11438;52.044;8.716;2023-08-12T09:17:37;4.32;;;3.17;;
22543;SDS011;11438;52.044;8.716;2023-08-12T09:20:03;4.10;;;3.10;;
22543;SDS011;11438;52.044;8.716;2023-08-12T09:22:34;3.47;;;3.15;;
22543;SDS011;11438;52.044;8.716;2023-08-12T09:24:59;4.63;;;3.47;;
22543;SDS011;11438;52.044;8.716;2023-08-12T09:27:26;4.28;;;3.47;;
22543;SDS011;11438;52.044;8.716;2023-08-12T09:29:55;3.80;;;3.13;;
22543;SDS011;11438;52.044;8.716;2023-08-12T09:32:24;4.65;;;3.70;;
22543;SDS011;11438;52.044;8.716;2023-08-12T09:37:16;4.07;;;3.67;;
22543;SDS011;11438;52.044;8.716;2023-08-12T09:39:43;3.83;;;3.45;;
22543;SDS011;11438;52.044;8.716;2023-08-12T09:42:09;5.05;;;3.97;;
22543;SDS011;11438;52.044;8.716;2023-08-12T09:44:36;4.97;;;3.33;;
22543;SDS011;11438;52.044;8.716;2023-08-12T09:47:02;5.70;;;3.80;;
22543;SDS011;11438;52.044;8.716;2023-08-12T09:49:28;5.32;;;3.60;;
22543;SDS011;11438;52.044;8.716;2023-08-12T09:51:54;3.42;;;3.00;;
22543;SDS011;11438;52.044;8.716;2023-08-12T09:54:21;4.40;;;3.03;;
22543;SDS011;11438;52.044;8.716;2023-08-12T09:56:47;4.35;;;3.00;;
22543;SDS011;11438;52.044;8.716;2023-08-12T09:59:15;5.15;;;2.85;;
22543;SDS011;11438;52.044;8.716;2023-08-12T10:01:47;3.65;;;3.25;;
22543;SDS011;11438;52.044;8.716;2023-08-12T10:04:14;3.92;;;2.78;;
22543;SDS011;11438;52.044;8.716;2023-08-12T10:06:43;3.17;;;2.50;;
22543;SDS011;11438;52.044;8.716;2023-08-12T10:09:09;3.20;;;2.35;;
22543;SDS011;11438;52.044;8.716;2023-08-12T10:11:36;3.28;;;2.55;;
22543;SDS011;11438;52.044;8.716;2023-08-12T10:14:02;3.47;;;2.38;;
22543;SDS011;11438;52.044;8.716;2023-08-12T10:16:29;4.10;;;2.17;;
22543;SDS011;11438;52.044;8.716;2023-08-12T10:18:58;2.95;;;1.98;;
22543;SDS011;11438;52.044;8.716;2023-08-12T10:21:25;3.33;;;2.20;;
22543;SDS011;11438;52.044;8.716;2023-08-12T10:23:51;3.45;;;2.33;;
22543;SDS011;11438;52.044;8.716;2023-08-12T10:26:18;2.60;;;1.98;;
22543;SDS011;11438;52.044;8.716;2023-08-12T10:28:45;3.47;;;1.98;;
22543;SDS011;11438;52.044;8.716;2023-08-12T10:31:11;3.42;;;1.80;;
22543;SDS011;11438;52.044;8.716;2023-08-12T10:33:40;2.42;;;1.70;;
22543;SDS011;11438;52.044;8.716;2023-08-12T10:36:06;3.05;;;2.20;;
22543;SDS011;11438;52.044;8.716;2023-08-12T10:38:32;3.00;;;1.90;;
22543;SDS011;11438;52.044;8.716;2023-08-12T10:43:54;1.70;;;1.60;;
22543;SDS011;11438;52.044;8.716;2023-08-12T10:49:03;2.20;;;1.55;;
22543;SDS011;11438;52.044;8.716;2023-08-12T10:54:28;2.47;;;1.20;;
22543;SDS011;11438;52.044;8.716;2023-08-12T11:02:18;1.90;;;1.33;;
22543;SDS011;11438;52.044;8.716;2023-08-12T11:04:56;2.00;;;1.20;;
22543;SDS011;11438;52.044;8.716;2023-08-12T11:07:32;1.65;;;1.10;;
22543;SDS011;11438;52.044;8.716;2023-08-12T11:10:18;1.48;;;1.30;;
22543;SDS011;11438;52.044;8.716;2023-08-12T11:18:07;1.88;;;1.17;;
22543;SDS011;11438;52.044;8.716;2023-08-12T11:20:33;3.08;;;1.02;;
22543;SDS011;11438;52.044;8.716;2023-08-12T11:22:59;1.42;;;1.00;;
22543;SDS011;11438;52.044;8.716;2023-08-12T11:25:30;1.63;;;0.93;;
22543;SDS011;11438;52.044;8.716;2023-08-12T11:27:56;1.42;;;1.02;;
22543;SDS011;11438;52.044;8.716;2023-08-12T11:30:22;1.88;;;1.13;;
22543;SDS011;11438;52.044;8.716;2023-08-12T11:32:49;1.70;;;1.00;;
22543;SDS011;11438;52.044;8.716;2023-08-12T11:35:16;1.40;;;0.90;;
22543;SDS011;11438;52.044;8.716;2023-08-12T11:37:46;0.95;;;0.88;;
22543;SDS011;11438;52.044;8.716;2023-08-12T11:40:14;1.40;;;0.90;;
22543;SDS011;11438;52.044;8.716;2023-08-12T11:42:42;1.38;;;0.80;;
22543;SDS011;11438;52.044;8.716;2023-08-12T11:45:10;1.30;;;0.80;;
22543;SDS011;11438;52.044;8.716;2023-08-12T11:47:37;1.00;;;0.77;;
22543;SDS011;11438;52.044;8.716;2023-08-12T11:50:05;2.13;;;0.90;;
22543;SDS011;11438;52.044;8.716;2023-08-12T11:52:31;1.25;;;0.82;;
22543;SDS011;11438;52.044;8.716;2023-08-12T11:54:57;1.25;;;0.80;;
22543;SDS011;11438;52.044;8.716;2023-08-12T11:57:24;0.75;;;0.63;;
22543;SDS011;11438;52.044;8.716;2023-08-12T11:59:51;0.75;;;0.70;;
22543;SDS011;11438;52.044;8.716;2023-08-12T12:02:16;0.93;;;0.70;;
22543;SDS011;11438;52.044;8.716;2023-08-12T12:04:42;1.02;;;0.80;;
22543;SDS011;11438;52.044;8.716;2023-08-12T12:07:18;0.98;;;0.82;;
22543;SDS011;11438;52.044;8.716;2023-08-12T12:09:51;1.10;;;0.60;;
22543;SDS011;11438;52.044;8.716;2023-08-12T12:12:21;0.85;;;0.50;;
22543;SDS011;11438;52.044;8.716;2023-08-12T12:14:48;0.65;;;0.40;;
22543;SDS011;11438;52.044;8.716;2023-08-12T12:17:17;0.73;;;0.47;;
22543;SDS011;11438;52.044;8.716;2023-08-12T12:19:45;4.07;;;0.65;;
22543;SDS011;11438;52.044;8.716;2023-08-12T12:22:11;0.60;;;0.60;;
22543;SDS011;11438;52.044;8.716;2023-08-12T12:24:45;0.95;;;0.70;;
22543;SDS011;11438;52.044;8.716;2023-08-12T12:27:12;2.47;;;0.70;;
22543;SDS011;11438;52.044;8.716;2023-08-12T12:29:39;0.80;;;0.60;;
22543;SDS011;11438;52.044;8.716;2023-08-12T12:32:04;1.15;;;0.60;;
22543;SDS011;11438;52.044;8.716;2023-08-12T12:34:30;0.55;;;0.50;;
22543;SDS011;11438;52.044;8.716;2023-08-12T12:36:55;1.23;;;0.70;;
22543;SDS011;11438;52.044;8.716;2023-08-12T12:39:21;0.75;;;0.60;;
22543;SDS011;11438;52.044;8.716;2023-08-12T12:41:48;1.13;;;0.65;;
22543;SDS011;11438;52.044;8.716;2023-08-12T12:44:13;0.70;;;0.63;;
22543;SDS011;11438;52.044;8.716;2023-08-12T12:46:39;0.93;;;0.70;;
22543;SDS011;11438;52.044;8.716;2023-08-12T12:49:05;1.90;;;0.80;;
22543;SDS011;11438;52.044;8.716;2023-08-12T12:51:30;0.75;;;0.43;;
22543;SDS011;11438;52.044;8.716;2023-08-12T12:53:56;1.08;;;0.70;;
22543;SDS011;11438;52.044;8.716;2023-08-12T12:56:22;0.88;;;0.60;;
22543;SDS011;11438;52.044;8.716;2023-08-12T12:58:47;0.50;;;0.50;;
22543;SDS011;11438;52.044;8.716;2023-08-12T13:01:13;1.10;;;0.70;;
22543;SDS011;11438;52.044;8.716;2023-08-12T13:03:38;1.65;;;0.68;;
22543;SDS011;11438;52.044;8.716;2023-08-12T13:06:04;0.63;;;0.63;;
22543;SDS011;11438;52.044;8.716;2023-08-12T13:08:30;0.75;;;0.50;;
22543;SDS011;11438;52.044;8.716;2023-08-12T13:10:56;0.50;;;0.40;;
22543;SDS011;11438;52.044;8.716;2023-08-12T13:13:22;0.80;;;0.60;;
22543;SDS011;11438;52.044;8.716;2023-08-12T13:15:48;0.55;;;0.43;;
22543;SDS011;11438;52.044;8.716;2023-08-12T13:18:14;1.38;;;0.60;;
22543;SDS011;11438;52.044;8.716;2023-08-12T13:20:39;2.60;;;0.80;;
22543;SDS011;11438;52.044;8.716;2023-08-12T13:23:05;1.80;;;0.50;;
22543;SDS011;11438;52.044;8.716;2023-08-12T13:25:32;2.75;;;0.80;;
22543;SDS011;11438;52.044;8.716;2023-08-12T13:27:59;0.77;;;0.52;;
22543;SDS011;11438;52.044;8.716;2023-08-12T13:30:28;1.05;;;0.60;;
22543;SDS011;11438;52.044;8.716;2023-08-12T13:32:54;1.20;;;0.60;;
22543;SDS011;11438;52.044;8.716;2023-08-12T13:35:20;0.70;;;0.60;;
22543;SDS011;11438;52.044;8.716;2023-08-12T13:37:46;0.85;;;0.73;;
22543;SDS011;11438;52.044;8.716;2023-08-12T13:40:12;0.77;;;0.60;;
22543;SDS011;11438;52.044;8.716;2023-08-12T13:42:39;1.95;;;1.00;;
22543;SDS011;11438;52.044;8.716;2023-08-12T13:45:06;2.75;;;0.90;;
22543;SDS011;11438;52.044;8.716;2023-08-12T13:47:33;1.75;;;0.70;;
22543;SDS011;11438;52.044;8.716;2023-08-12T13:49:59;1.83;;;0.95;;
22543;SDS011;11438;52.044;8.716;2023-08-12T13:52:24;1.67;;;0.75;;
22543;SDS011;11438;52.044;8.716;2023-08-12T13:54:50;2.05;;;0.93;;
22543;SDS011;11438;52.044;8.716;2023-08-12T13:57:15;1.67;;;0.90;;
22543;SDS011;11438;52.044;8.716;2023-08-12T13:59:41;1.67;;;0.63;;
22543;SDS011;11438;52.044;8.716;2023-08-12T14:02:09;1.35;;;0.82;;
22543;SDS011;11438;52.044;8.716;2023-08-12T14:04:35;2.25;;;0.93;;
22543;SDS011;11438;52.044;8.716;2023-08-12T14:07:02;1.30;;;0.70;;
22543;SDS011;11438;52.044;8.716;2023-08-12T14:09:28;1.15;;;0.73;;
22543;SDS011;11438;52.044;8.716;2023-08-12T14:11:54;1.40;;;0.70;;
22543;SDS011;11438;52.044;8.716;2023-08-12T14:14:19;1.42;;;0.80;;
22543;SDS011;11438;52.044;8.716;2023-08-12T14:16:45;0.80;;;0.52;;
22543;SDS011;11438;52.044;8.716;2023-08-12T14:19:10;0.75;;;0.68;;
22543;SDS011;11438;52.044;8.716;2023-08-12T14:21:36;0.77;;;0.75;;
22543;SDS011;11438;52.044;8.716;2023-08-12T14:24:01;0.75;;;0.60;;
22543;SDS011;11438;52.044;8.716;2023-08-12T14:26:27;1.27;;;0.90;;
22543;SDS011;11438;52.044;8.716;2023-08-12T14:28:52;1.70;;;1.00;;
22543;SDS011;11438;52.044;8.716;2023-08-12T14:31:18;1.92;;;1.00;;
22543;SDS011;11438;52.044;8.716;2023-08-12T14:33:43;1.60;;;1.20;;
22543;SDS011;11438;52.044;8.716;2023-08-12T14:36:09;1.90;;;1.50;;
22543;SDS011;11438;52.044;8.716;2023-08-12T14:38:34;1.85;;;1.65;;
22543;SDS011;11438;52.044;8.716;2023-08-12T14:41:00;1.80;;;1.65;;
22543;SDS011;11438;52.044;8.716;2023-08-12T14:43:26;1.95;;;1.65;;
22543;SDS011;11438;52.044;8.716;2023-08-12T14:45:52;3.70;;;1.77;;
22543;SDS011;11438;52.044;8.716;2023-08-12T14:48:17;1.90;;;1.70;;
22543;SDS011;11438;52.044;8.716;2023-08-12T14:50:43;3.00;;;1.92;;
22543;SDS011;11438;52.044;8.716;2023-08-12T14:53:09;2.10;;;1.88;;
22543;SDS011;11438;52.044;8.716;2023-08-12T14:55:35;3.15;;;2.15;;
22543;SDS011;11438;52.044;8.716;2023-08-12T14:58:00;2.20;;;2.00;;
22543;SDS011;11438;52.044;8.716;2023-08-12T15:00:26;1.85;;;1.63;;
22543;SDS011;11438;52.044;8.716;2023-08-12T15:02:52;2.25;;;1.77;;
22543;SDS011;11438;52.044;8.716;2023-08-12T15:05:17;3.38;;;2.00;;
22543;SDS011;11438;52.044;8.716;2023-08-12T15:07:43;3.25;;;1.80;;